This is the latest recevied weather packets stored in our database for station/object W7PLC. If no packets are shown the sender has not sent any weather packets the latest 10 day(s).
| Time | Temp. | Humidity | Pressure | Rain* | Wind** | Luminosity | Snow |
|---|---|---|---|---|---|---|---|
| 1777506978 | 22.22° C | 48% | 1019.7 hPa | 0 mm | - | 351 W/m² | - |
| 1777506676 | 23.33° C | 46% | 1019.7 hPa | 0 mm | - | 363 W/m² | - |
| 1777506372 | 22.22° C | 48% | 1019.9 hPa | 0 mm | - | 370 W/m² | - |
| 1777506068 | 23.33° C | 47% | 1019.8 hPa | 0 mm | - | 424 W/m² | - |
| 1777505763 | 22.78° C | 47% | 1019.8 hPa | 0 mm | - | 475 W/m² | - |
| 1777505461 | 22.78° C | 45% | 1019.9 hPa | 0 mm | - | 518 W/m² | - |
| 1777505157 | 22.78° C | 47% | 1020.1 hPa | 0 mm | - | 537 W/m² | - |
| 1777504854 | 22.78° C | 47% | 1019.9 hPa | 0 mm | - | 569 W/m² | - |
| 1777504551 | 22.78° C | 47% | 1020.1 hPa | 0 mm | - | 584 W/m² | - |
| 1777504247 | 23.33° C | 47% | 1020.2 hPa | 0 mm | - | 612 W/m² | - |
| 1777503943 | 23.33° C | 47% | 1020.1 hPa | 0 mm | - | 630 W/m² | - |
| 1777503639 | 22.78° C | 48% | 1020 hPa | 0 mm | - | 641 W/m² | - |
| 1777503336 | 22.22° C | 49% | 1020.4 hPa | 0 mm | - | 632 W/m² | - |
| 1777503032 | 21.67° C | 49% | 1020.4 hPa | 0 mm | - | 660 W/m² | - |
| 1777502730 | 22.22° C | 49% | 1020.5 hPa | 0 mm | - | 662 W/m² | - |
| 1777502426 | 22.78° C | 49% | 1020.5 hPa | 0 mm | - | 661 W/m² | - |
| 1777502123 | 22.22° C | 48% | 1020.7 hPa | 0 mm | - | 675 W/m² | - |
| 1777501822 | 21.67° C | 50% | 1020.7 hPa | 0 mm | - | 653 W/m² | - |
| 1777501518 | 22.78° C | 48% | 1020.8 hPa | 0 mm | - | 640 W/m² | - |
| 1777501215 | 22.78° C | 48% | 1020.8 hPa | 0 mm | - | 664 W/m² | - |
| 1777500913 | 21.67° C | 51% | 1020.9 hPa | 0 mm | - | 726 W/m² | - |
| 1777500610 | 22.22° C | 50% | 1020.9 hPa | 0 mm | - | 730 W/m² | - |
| 1777500306 | 22.22° C | 50% | 1021.1 hPa | 0 mm | - | 706 W/m² | - |
| 1777500003 | 21.11° C | 51% | 1021.1 hPa | 0 mm | - | 679 W/m² | - |
| 1777499699 | 21.11° C | 51% | 1021.2 hPa | 0 mm | - | 622 W/m² | - |
* Rain latest hour (hover to see other rain measurements)
** Current wind speed in m/s (hover to see current wind gust speed)